Time;durP1;ratioP1;P1;durP2;ratioP2;P2;SDS_P1;SDS_P2;PMS_P1;PMS_P2;Temp;Humidity;BMP_temperature;BMP_pressure;BME280_temperature;BME280_humidity;BME280_pressure;Samples;Min_cycle;Max_cycle;Signal;HPM_P1;HPM_P2
2022/01/11 00:00:08;;;;;;;36.77;19.13;;;-2.00;99.90;;;;;;5032714;28;20214;-68
2022/01/11 00:02:38;;;;;;;34.47;18.77;;;-2.00;99.90;;;;;;5032003;28;20233;-68
2022/01/11 00:05:06;;;;;;;39.00;20.60;;;-2.00;99.90;;;;;;5026520;28;20207;-68
2022/01/11 00:07:35;;;;;;;39.77;19.40;;;-2.00;99.90;;;;;;5044028;28;20202;-68
2022/01/11 00:10:02;;;;;;;34.27;19.13;;;-1.90;99.90;;;;;;5030389;28;20272;-67
2022/01/11 00:12:30;;;;;;;37.67;19.53;;;-2.10;99.90;;;;;;5032405;28;20218;-68
2022/01/11 00:14:57;;;;;;;35.93;19.10;;;-2.10;99.90;;;;;;5031726;28;20214;-67
2022/01/11 00:17:24;;;;;;;34.53;18.60;;;-2.10;99.90;;;;;;5044027;28;20202;-68
2022/01/11 00:19:50;;;;;;;32.67;18.80;;;-2.10;99.90;;;;;;5045676;28;20577;-68
2022/01/11 00:22:20;;;;;;;32.83;17.53;;;-2.10;99.90;;;;;;5038322;28;20226;-68
2022/01/11 00:24:45;;;;;;;37.40;18.97;;;-2.10;99.90;;;;;;5033094;28;20234;-68
2022/01/11 00:27:13;;;;;;;35.23;18.67;;;-2.10;99.90;;;;;;5032119;28;20213;-68
2022/01/11 00:29:44;;;;;;;37.47;19.30;;;-2.10;99.90;;;;;;5029322;28;20252;-67
2022/01/11 00:32:15;;;;;;;36.27;20.53;;;-2.10;99.90;;;;;;5025431;28;20687;-68
2022/01/11 00:34:49;;;;;;;35.83;18.23;;;-2.10;99.90;;;;;;5023485;28;20206;-67
2022/01/11 00:37:17;;;;;;;37.50;19.23;;;-2.10;99.90;;;;;;5032671;28;20645;-67
2022/01/11 00:39:45;;;;;;;36.93;19.73;;;-2.10;99.90;;;;;;5042836;28;20206;-67
2022/01/11 00:42:13;;;;;;;38.63;19.77;;;-2.10;99.90;;;;;;5031813;28;20234;-68
2022/01/11 00:44:41;;;;;;;39.17;20.30;;;-2.10;99.90;;;;;;5034315;28;20207;-67
2022/01/11 00:47:08;;;;;;;39.60;18.30;;;-2.10;99.90;;;;;;5032127;28;20217;-68
2022/01/11 00:49:35;;;;;;;30.20;18.03;;;-2.10;99.90;;;;;;5037362;28;20727;-67
2022/01/11 00:52:03;;;;;;;35.17;18.80;;;-2.20;99.90;;;;;;5032822;28;20203;-68
2022/01/11 00:54:30;;;;;;;40.13;19.87;;;-2.20;99.90;;;;;;5030724;28;20256;-68
2022/01/11 00:56:57;;;;;;;37.97;19.63;;;-2.20;99.90;;;;;;5037658;28;20226;-68
2022/01/11 00:59:24;;;;;;;36.47;18.70;;;-2.20;99.90;;;;;;5039828;28;20199;-67
2022/01/11 01:01:52;;;;;;;34.40;18.73;;;-2.20;99.90;;;;;;5048913;28;20238;-68
2022/01/11 01:04:19;;;;;;;35.53;19.37;;;-2.20;99.90;;;;;;5044108;28;20216;-68
2022/01/11 01:06:45;;;;;;;39.70;19.73;;;-2.20;99.90;;;;;;5035549;28;20212;-68
2022/01/11 01:09:12;;;;;;;37.23;19.33;;;-2.20;99.90;;;;;;5023236;28;20656;-68
2022/01/11 01:11:41;;;;;;;36.87;20.83;;;-2.20;99.90;;;;;;5045136;28;20621;-67
2022/01/11 01:14:08;;;;;;;35.70;18.90;;;-2.20;99.90;;;;;;5045001;28;20217;-68
2022/01/11 01:16:34;;;;;;;35.43;17.80;;;-2.20;99.90;;;;;;5038364;28;20682;-67
2022/01/11 01:19:03;;;;;;;37.10;19.70;;;-2.20;99.90;;;;;;5047996;28;20578;-67
2022/01/11 01:21:36;;;;;;;34.73;18.43;;;-2.20;99.90;;;;;;5043004;28;20207;-68
2022/01/11 01:24:03;;;;;;;40.97;20.43;;;-2.20;99.90;;;;;;5043916;28;20564;-68
2022/01/11 01:26:31;;;;;;;30.73;18.37;;;-2.20;99.90;;;;;;5039732;28;20201;-67
2022/01/11 01:28:59;;;;;;;33.20;19.37;;;-2.20;99.90;;;;;;5048622;28;20209;-68
2022/01/11 01:31:27;;;;;;;34.90;18.67;;;-2.20;99.90;;;;;;5041877;28;20298;-68
2022/01/11 01:33:55;;;;;;;34.83;18.37;;;-2.20;99.90;;;;;;5050521;28;20304;-68
2022/01/11 01:36:24;;;;;;;34.00;18.63;;;-2.20;99.90;;;;;;5049357;28;20678;-67
2022/01/11 01:38:51;;;;;;;37.77;19.53;;;-2.20;99.90;;;;;;5036688;28;20242;-68
2022/01/11 01:41:20;;;;;;;34.90;18.47;;;-2.20;99.90;;;;;;5052085;28;20216;-67
2022/01/11 01:43:50;;;;;;;31.80;19.17;;;-2.20;99.90;;;;;;5048877;28;20253;-67
2022/01/11 01:46:17;;;;;;;36.63;20.10;;;-2.20;99.90;;;;;;5039791;28;20206;-68
2022/01/11 01:48:45;;;;;;;37.50;19.40;;;-2.20;99.90;;;;;;5046202;28;20639;-67
2022/01/11 01:51:13;;;;;;;33.67;18.63;;;-2.20;99.90;;;;;;5034984;28;20199;-67
2022/01/11 01:53:47;;;;;;;36.30;19.13;;;-2.20;99.90;;;;;;5034996;28;20210;-67
2022/01/11 01:56:14;;;;;;;34.50;18.93;;;-2.20;99.90;;;;;;5045655;28;20236;-68
2022/01/11 01:58:42;;;;;;;30.10;17.40;;;-2.10;99.90;;;;;;5037097;28;20213;-68
2022/01/11 02:01:12;;;;;;;34.33;19.13;;;-2.20;99.90;;;;;;5039808;28;20684;-68
2022/01/11 02:03:40;;;;;;;29.20;18.17;;;-2.30;99.90;;;;;;5045194;28;20333;-68
2022/01/11 02:06:09;;;;;;;29.53;18.23;;;-2.30;99.90;;;;;;5050525;28;20244;-68
2022/01/11 02:08:36;;;;;;;34.03;18.90;;;-2.30;99.90;;;;;;5052952;28;20216;-68
2022/01/11 02:11:05;;;;;;;32.37;19.07;;;-2.30;99.90;;;;;;5038843;28;20213;-68
2022/01/11 02:13:31;;;;;;;38.00;19.03;;;-2.40;99.90;;;;;;5040910;28;20211;-68
2022/01/11 02:15:58;;;;;;;35.93;19.17;;;-2.40;99.90;;;;;;5033283;28;20722;-67
2022/01/11 02:18:27;;;;;;;35.60;18.83;;;-2.50;99.90;;;;;;5052429;28;20601;-68
2022/01/11 02:20:58;;;;;;;34.47;18.87;;;-2.50;99.90;;;;;;5049497;28;20297;-68
2022/01/11 02:23:26;;;;;;;35.17;20.03;;;-2.50;99.90;;;;;;5035872;28;20210;-69
2022/01/11 02:25:53;;;;;;;36.60;18.47;;;-2.60;99.90;;;;;;5043939;28;20206;-68
2022/01/11 02:28:22;;;;;;;38.70;20.20;;;-2.60;99.90;;;;;;5049468;28;20206;-68
2022/01/11 02:30:50;;;;;;;37.70;19.13;;;-2.60;99.90;;;;;;5040073;28;20759;-68
2022/01/11 02:33:26;;;;;;;33.77;18.60;;;-2.60;99.90;;;;;;5047790;28;20298;-68
2022/01/11 02:35:54;;;;;;;32.93;17.87;;;-2.60;99.90;;;;;;5038636;28;20218;-68
2022/01/11 02:38:21;;;;;;;35.07;19.17;;;-2.60;99.90;;;;;;5049707;28;20242;-69
2022/01/11 02:40:50;;;;;;;37.73;19.77;;;-2.70;99.90;;;;;;5050066;28;20226;-68
2022/01/11 02:43:17;;;;;;;33.27;19.40;;;-2.70;99.90;;;;;;5053142;28;20218;-68
2022/01/11 02:45:44;;;;;;;36.93;19.27;;;-2.70;99.90;;;;;;5045578;28;20281;-68
2022/01/11 02:48:11;;;;;;;36.30;18.87;;;-2.80;99.90;;;;;;5044006;28;20285;-68
2022/01/11 02:50:38;;;;;;;33.53;18.70;;;-2.80;99.90;;;;;;5038238;28;20203;-68
2022/01/11 02:53:06;;;;;;;38.10;20.63;;;-2.80;99.90;;;;;;5034135;28;20202;-68
2022/01/11 02:55:37;;;;;;;41.57;19.93;;;-2.80;99.90;;;;;;5040166;28;20208;-67
2022/01/11 02:58:04;;;;;;;37.47;18.97;;;-2.80;99.90;;;;;;5043045;28;20222;-67
2022/01/11 03:00:32;;;;;;;38.20;19.13;;;-2.90;99.90;;;;;;5039781;28;20233;-67
2022/01/11 03:03:09;;;;;;;35.73;19.33;;;-2.90;99.90;;;;;;5035626;28;20584;-68
2022/01/11 03:05:36;;;;;;;39.33;20.23;;;-2.90;99.90;;;;;;5034841;28;20206;-68
2022/01/11 03:08:04;;;;;;;37.90;20.33;;;-2.90;99.90;;;;;;5046751;28;20631;-69
2022/01/11 03:10:33;;;;;;;37.90;18.73;;;-2.90;99.90;;;;;;5041864;28;20670;-68
2022/01/11 03:13:00;;;;;;;33.60;19.43;;;-2.90;99.90;;;;;;5042226;28;20324;-68
2022/01/11 03:15:27;;;;;;;35.97;19.73;;;-2.90;99.90;;;;;;5049228;28;20249;-68
2022/01/11 03:17:54;;;;;;;36.30;19.80;;;-3.00;99.90;;;;;;5052691;28;20209;-68
2022/01/11 03:20:21;;;;;;;35.17;18.77;;;-3.00;99.90;;;;;;5052432;28;20206;-67
2022/01/11 03:22:48;;;;;;;34.63;19.03;;;-3.00;99.90;;;;;;5044975;28;20218;-67
2022/01/11 03:25:16;;;;;;;40.70;19.40;;;-3.00;99.90;;;;;;5045204;28;20207;-68
2022/01/11 03:27:45;;;;;;;37.83;18.30;;;-3.00;99.90;;;;;;5042529;28;20498;-68
2022/01/11 03:30:12;;;;;;;37.70;20.10;;;-3.00;99.90;;;;;;5052669;28;20216;-68
2022/01/11 03:32:40;;;;;;;35.33;19.20;;;-3.00;99.90;;;;;;5037272;28;20202;-67
2022/01/11 03:35:09;;;;;;;35.27;18.57;;;-3.00;99.90;;;;;;5042206;28;20257;-68
2022/01/11 03:37:36;;;;;;;37.20;20.13;;;-3.00;99.90;;;;;;5048682;28;20717;-68
2022/01/11 03:40:04;;;;;;;35.43;20.00;;;-3.00;99.90;;;;;;5045469;28;20217;-68
2022/01/11 03:42:31;;;;;;;36.77;20.90;;;-3.00;99.90;;;;;;5047447;28;20213;-67
2022/01/11 03:44:59;;;;;;;38.60;20.63;;;-3.00;99.90;;;;;;5046639;28;20206;-67
2022/01/11 03:47:26;;;;;;;39.87;20.30;;;-3.00;99.90;;;;;;5040958;28;20203;-67
2022/01/11 03:49:52;;;;;;;41.03;21.57;;;-3.00;99.90;;;;;;5051292;28;20209;-67
2022/01/11 03:52:20;;;;;;;37.13;21.17;;;-3.00;99.90;;;;;;5046528;28;20206;-67
2022/01/11 03:55:02;;;;;;;38.47;20.83;;;-3.00;99.90;;;;;;5028172;28;20307;-68
2022/01/11 03:57:31;;;;;;;39.30;20.57;;;-3.00;99.90;;;;;;5032863;28;20326;-67
2022/01/11 04:00:03;;;;;;;36.23;21.07;;;-3.00;99.90;;;;;;5045284;28;20636;-68
2022/01/11 04:02:30;;;;;;;37.27;19.37;;;-3.00;99.90;;;;;;5040071;28;20202;-67
2022/01/11 04:04:57;;;;;;;31.13;19.27;;;-3.00;99.90;;;;;;5044487;28;20236;-67
2022/01/11 04:07:25;;;;;;;39.60;19.97;;;-3.10;99.90;;;;;;5049884;28;20653;-67
2022/01/11 04:09:54;;;;;;;41.70;20.03;;;-3.10;99.90;;;;;;5047051;28;20651;-68
2022/01/11 04:12:22;;;;;;;37.17;19.63;;;-3.10;99.90;;;;;;5048436;28;20249;-68
2022/01/11 04:14:49;;;;;;;35.73;19.27;;;-3.10;99.90;;;;;;5050281;28;20262;-68
2022/01/11 04:17:17;;;;;;;37.70;20.30;;;-3.10;99.90;;;;;;5048675;28;20203;-68
2022/01/11 04:19:44;;;;;;;40.23;20.97;;;-3.10;99.90;;;;;;5046917;28;20300;-68
2022/01/11 04:22:11;;;;;;;38.50;18.43;;;-3.10;99.90;;;;;;5041381;28;20229;-68
2022/01/11 04:24:38;;;;;;;35.53;19.83;;;-3.10;99.90;;;;;;5051608;28;20214;-68
2022/01/11 04:27:05;;;;;;;36.50;18.93;;;-3.10;99.90;;;;;;5036060;28;20637;-69
2022/01/11 04:29:32;;;;;;;34.93;20.30;;;-3.10;99.90;;;;;;5046430;28;20736;-68
2022/01/11 04:31:59;;;;;;;37.30;19.60;;;-3.10;99.90;;;;;;5046803;28;20214;-68
2022/01/11 04:34:28;;;;;;;36.43;19.87;;;-3.10;99.90;;;;;;5050829;28;20285;-68
2022/01/11 04:36:55;;;;;;;35.87;19.53;;;-3.10;99.90;;;;;;5049579;28;20250;-68
2022/01/11 04:39:23;;;;;;;35.50;19.40;;;-3.10;99.90;;;;;;5046126;28;20573;-68
2022/01/11 04:41:50;;;;;;;35.90;19.00;;;-3.10;99.90;;;;;;5049801;28;20214;-68
2022/01/11 04:44:17;;;;;;;36.57;20.37;;;-3.20;99.90;;;;;;5042496;28;20679;-68
2022/01/11 04:46:44;;;;;;;33.87;19.83;;;-3.20;99.90;;;;;;5048824;28;20697;-68
2022/01/11 04:49:11;;;;;;;38.30;19.37;;;-3.20;99.90;;;;;;5051403;28;20199;-69
2022/01/11 04:51:39;;;;;;;34.77;20.30;;;-3.20;99.90;;;;;;5049131;28;20302;-69
2022/01/11 04:54:07;;;;;;;33.73;19.43;;;-3.20;99.90;;;;;;5043189;28;20662;-68
2022/01/11 04:56:34;;;;;;;39.13;20.73;;;-3.20;99.90;;;;;;5053519;28;20249;-68
2022/01/11 04:59:00;;;;;;;38.47;19.70;;;-3.20;99.90;;;;;;5042654;28;20644;-68
2022/01/11 05:01:30;;;;;;;37.23;18.63;;;-3.20;99.90;;;;;;5049014;28;20293;-69
2022/01/11 05:03:56;;;;;;;37.37;20.17;;;-3.20;99.90;;;;;;5052360;28;20232;-68
2022/01/11 05:06:23;;;;;;;35.23;19.30;;;-3.20;99.90;;;;;;5049723;28;20578;-68
2022/01/11 05:08:51;;;;;;;37.23;20.33;;;-3.20;99.90;;;;;;5054420;28;20632;-68
2022/01/11 05:11:18;;;;;;;36.80;20.87;;;-2.90;99.90;;;;;;5046390;28;20758;-68
2022/01/11 05:13:45;;;;;;;36.57;20.00;;;-3.30;99.90;;;;;;5054290;28;20201;-68
2022/01/11 05:16:12;;;;;;;41.90;21.00;;;-3.10;99.90;;;;;;5054436;28;20289;-68
2022/01/11 05:18:39;;;;;;;36.63;21.90;;;-3.20;99.90;;;;;;5046352;28;20208;-68
2022/01/11 05:21:06;;;;;;;37.50;20.23;;;-3.10;99.90;;;;;;5054355;28;20203;-67
2022/01/11 05:23:34;;;;;;;36.83;21.10;;;-3.10;99.90;;;;;;5049897;28;20237;-68
2022/01/11 05:26:02;;;;;;;35.13;19.77;;;-3.10;99.90;;;;;;5048205;28;20658;-67
2022/01/11 05:28:30;;;;;;;37.40;20.83;;;-3.10;99.90;;;;;;5056449;28;20217;-68
2022/01/11 05:30:57;;;;;;;37.50;20.90;;;-3.20;99.90;;;;;;5054727;28;20202;-67
2022/01/11 05:33:24;;;;;;;35.50;20.53;;;-3.20;99.90;;;;;;5048923;28;20214;-67
2022/01/11 05:35:50;;;;;;;32.87;19.53;;;-2.40;99.90;;;;;;5044824;28;20210;-67
2022/01/11 05:38:17;;;;;;;34.63;20.30;;;-3.10;99.90;;;;;;5041438;28;20234;-68
2022/01/11 05:40:44;;;;;;;34.10;19.93;;;-3.00;99.90;;;;;;5052591;28;20233;-67
2022/01/11 05:43:14;;;;;;;39.03;20.90;;;-3.00;99.90;;;;;;5053729;28;20224;-68
2022/01/11 05:45:41;;;;;;;36.67;21.13;;;-3.00;99.90;;;;;;5046701;28;20624;-68
2022/01/11 05:48:08;;;;;;;38.03;21.73;;;-2.90;99.90;;;;;;5056657;28;20201;-69
2022/01/11 05:50:37;;;;;;;42.80;21.73;;;-2.90;99.90;;;;;;5043913;28;20206;-68
2022/01/11 05:53:04;;;;;;;35.63;20.13;;;-1.80;99.90;;;;;;5038872;28;20206;-68
2022/01/11 05:55:31;;;;;;;37.67;21.37;;;-2.90;99.90;;;;;;5037007;28;20205;-68
2022/01/11 05:57:58;;;;;;;40.20;20.10;;;-2.90;99.90;;;;;;5035536;28;20518;-68
2022/01/11 06:00:26;;;;;;;37.90;19.67;;;-2.90;99.90;;;;;;5036551;28;20642;-68
2022/01/11 06:02:54;;;;;;;40.97;20.70;;;-3.00;99.90;;;;;;5034923;28;20226;-68
2022/01/11 06:05:23;;;;;;;39.17;22.13;;;-3.10;99.90;;;;;;5034708;28;20654;-68
2022/01/11 06:07:50;;;;;;;44.37;22.13;;;-3.10;99.90;;;;;;5038635;28;20207;-68
2022/01/11 06:10:19;;;;;;;44.37;22.03;;;-3.10;99.90;;;;;;5040009;28;20674;-68
2022/01/11 06:12:46;;;;;;;42.30;20.83;;;-3.10;99.90;;;;;;5036516;28;20301;-69
2022/01/11 06:15:13;;;;;;;42.40;22.27;;;-3.10;99.90;;;;;;5031314;28;20547;-67
2022/01/11 06:17:41;;;;;;;46.47;21.27;;;-3.20;99.90;;;;;;5035124;28;20207;-67
2022/01/11 06:20:09;;;;;;;42.37;22.80;;;-3.20;99.90;;;;;;5047053;28;20222;-67
2022/01/11 06:22:37;;;;;;;43.40;23.07;;;-3.20;99.90;;;;;;5037823;28;20655;-68
2022/01/11 06:25:06;;;;;;;45.53;22.47;;;-3.20;99.90;;;;;;5036580;28;20225;-69
2022/01/11 06:27:34;;;;;;;43.20;21.03;;;-3.30;99.90;;;;;;5046425;28;20204;-68
2022/01/11 06:30:01;;;;;;;44.57;22.60;;;-3.30;99.90;;;;;;5050854;28;20228;-69
2022/01/11 06:32:27;;;;;;;45.37;22.90;;;-3.30;99.90;;;;;;5042733;28;20198;-68
2022/01/11 06:34:56;;;;;;;48.73;23.93;;;-3.30;99.90;;;;;;5037884;28;20211;-68
2022/01/11 06:37:22;;;;;;;45.33;22.43;;;-3.20;99.90;;;;;;5035678;28;20252;-68
2022/01/11 06:39:49;;;;;;;48.10;22.53;;;-3.30;99.90;;;;;;5042450;28;20220;-68
2022/01/11 06:42:16;;;;;;;43.10;23.37;;;-3.30;99.90;;;;;;5040245;28;20234;-69
2022/01/11 06:44:43;;;;;;;46.40;23.57;;;-3.30;99.90;;;;;;5038402;28;20705;-68
2022/01/11 06:47:10;;;;;;;48.70;22.83;;;-3.30;99.90;;;;;;5034646;28;20268;-68
2022/01/11 06:49:38;;;;;;;38.50;21.23;;;-3.40;99.90;;;;;;5040688;28;20206;-67
2022/01/11 06:52:06;;;;;;;39.07;19.60;;;-3.50;99.90;;;;;;5044388;28;20202;-67
2022/01/11 06:54:33;;;;;;;48.10;21.40;;;-3.60;99.90;;;;;;5045403;28;20584;-68
2022/01/11 06:57:00;;;;;;;39.77;21.80;;;-3.80;99.90;;;;;;5038257;28;20310;-68
2022/01/11 06:59:27;;;;;;;47.87;21.67;;;-3.90;99.90;;;;;;5048562;28;20281;-68
2022/01/11 07:01:54;;;;;;;36.53;19.97;;;-3.90;99.90;;;;;;5046676;28;20296;-67
2022/01/11 07:04:21;;;;;;;39.80;20.47;;;-4.00;99.90;;;;;;5046494;28;20209;-68
2022/01/11 07:06:48;;;;;;;41.23;21.10;;;-4.10;99.90;;;;;;5034758;28;20831;-69
2022/01/11 07:09:16;;;;;;;42.07;21.33;;;-4.20;99.90;;;;;;5032040;28;20217;-67
2022/01/11 07:11:43;;;;;;;41.87;21.60;;;-4.20;99.90;;;;;;5039890;28;20562;-68
2022/01/11 07:14:11;;;;;;;46.37;23.00;;;-4.30;99.90;;;;;;5044623;28;20220;-68
2022/01/11 07:16:38;;;;;;;45.27;22.13;;;-4.30;99.90;;;;;;5043960;28;20233;-69
2022/01/11 07:19:05;;;;;;;41.80;20.97;;;-4.30;99.90;;;;;;5041161;28;20202;-68
2022/01/11 07:21:34;;;;;;;52.00;22.63;;;-4.30;99.90;;;;;;5044854;28;20332;-67
2022/01/11 07:24:01;;;;;;;43.87;21.40;;;-4.30;99.90;;;;;;5039924;28;20222;-67
2022/01/11 07:26:30;;;;;;;44.47;21.60;;;-4.40;99.90;;;;;;5049400;28;20217;-67
2022/01/11 07:28:56;;;;;;;42.73;20.67;;;-4.40;99.90;;;;;;5043302;28;20218;-67
2022/01/11 07:31:23;;;;;;;43.83;20.67;;;-4.30;99.90;;;;;;5051347;28;20566;-68
2022/01/11 07:33:51;;;;;;;38.03;21.20;;;-4.30;99.90;;;;;;5039904;28;20835;-68
2022/01/11 07:36:18;;;;;;;41.33;19.37;;;-4.30;99.90;;;;;;5042251;28;20301;-69
2022/01/11 07:38:45;;;;;;;40.43;20.03;;;-4.20;99.90;;;;;;5038337;28;20234;-67
2022/01/11 07:41:12;;;;;;;41.17;19.43;;;-4.10;99.90;;;;;;5047826;28;20198;-69
2022/01/11 07:43:40;;;;;;;41.20;18.80;;;-4.00;99.90;;;;;;5035584;28;20203;-68
2022/01/11 07:46:07;;;;;;;35.37;17.57;;;-3.90;99.90;;;;;;5041224;28;20238;-70
2022/01/11 07:48:34;;;;;;;35.63;17.57;;;-3.90;99.90;;;;;;5047500;28;20229;-68
2022/01/11 07:51:01;;;;;;;37.23;17.67;;;-3.80;99.90;;;;;;5030571;28;20560;-67
2022/01/11 07:53:28;;;;;;;31.70;16.70;;;-3.80;99.90;;;;;;5029534;28;20206;-68
2022/01/11 07:55:55;;;;;;;37.23;18.90;;;-3.70;99.90;;;;;;5030453;28;20203;-67
2022/01/11 07:58:22;;;;;;;35.70;17.20;;;-3.70;99.90;;;;;;5028489;28;20203;-67
2022/01/11 08:00:50;;;;;;;28.83;14.70;;;-3.60;99.90;;;;;;5029674;28;20682;-68
2022/01/11 08:03:17;;;;;;;35.90;16.70;;;-3.50;99.90;;;;;;5030696;28;20298;-70
2022/01/11 08:05:44;;;;;;;32.30;17.00;;;-3.50;99.90;;;;;;5041205;28;20218;-70
2022/01/11 08:08:11;;;;;;;36.83;17.83;;;-3.40;99.90;;;;;;5041999;28;20671;-68
2022/01/11 08:10:38;;;;;;;35.50;17.07;;;-3.30;99.90;;;;;;5034460;28;20207;-70
2022/01/11 08:13:08;;;;;;;41.83;18.20;;;-3.30;99.90;;;;;;5020647;28;20647;-70
2022/01/11 08:15:35;;;;;;;36.20;17.10;;;-3.20;99.90;;;;;;5023546;28;20203;-69
2022/01/11 08:18:04;;;;;;;31.97;15.73;;;-3.00;99.90;;;;;;5029702;28;20346;-68
2022/01/11 08:20:31;;;;;;;41.47;18.00;;;-2.90;99.90;;;;;;5030925;28;20301;-69
2022/01/11 08:22:58;;;;;;;35.37;17.47;;;-2.80;99.90;;;;;;5031288;28;20206;-69
2022/01/11 08:25:24;;;;;;;36.03;18.07;;;-2.70;99.90;;;;;;5032153;28;20232;-67
2022/01/11 08:27:51;;;;;;;37.23;15.17;;;-2.70;99.90;;;;;;5046654;28;20679;-68
2022/01/11 08:30:18;;;;;;;33.97;16.53;;;-2.60;99.90;;;;;;5038454;28;20238;-68
2022/01/11 08:32:46;;;;;;;30.40;16.17;;;-2.60;99.90;;;;;;5041848;28;20212;-67
2022/01/11 08:35:14;;;;;;;31.80;16.53;;;-2.60;99.90;;;;;;5044011;28;20645;-69
2022/01/11 08:37:41;;;;;;;38.33;17.90;;;-2.50;99.90;;;;;;5037056;28;20240;-67
2022/01/11 08:40:09;;;;;;;36.07;17.40;;;-2.50;99.90;;;;;;5029238;28;20202;-66
2022/01/11 08:42:36;;;;;;;36.57;17.87;;;-2.40;99.90;;;;;;5033891;28;20613;-68
2022/01/11 08:45:03;;;;;;;36.77;18.83;;;-2.40;99.90;;;;;;5030186;28;20791;-66
2022/01/11 08:47:32;;;;;;;41.73;17.37;;;-2.30;99.90;;;;;;5037425;28;20206;-67
2022/01/11 08:49:59;;;;;;;41.03;18.23;;;-2.30;99.90;;;;;;5035361;28;20298;-67
2022/01/11 08:52:28;;;;;;;38.77;18.60;;;-2.20;99.90;;;;;;5030156;28;20302;-67
2022/01/11 08:54:55;;;;;;;40.80;19.33;;;-2.20;99.90;;;;;;5029748;28;20206;-67
2022/01/11 08:57:22;;;;;;;36.53;17.20;;;-2.10;99.90;;;;;;5030081;28;20598;-66
2022/01/11 08:59:50;;;;;;;37.90;17.60;;;-2.10;99.90;;;;;;5026610;28;20218;-68
2022/01/11 09:02:20;;;;;;;43.80;20.03;;;-2.10;99.90;;;;;;5026360;28;20583;-66
2022/01/11 09:04:47;;;;;;;38.20;19.50;;;-2.00;99.90;;;;;;5037843;28;20229;-67
2022/01/11 09:07:14;;;;;;;36.20;17.93;;;-2.00;99.90;;;;;;5047151;28;20654;-66
2022/01/11 09:09:42;;;;;;;40.50;18.33;;;-2.00;99.90;;;;;;5036648;28;20606;-66
2022/01/11 09:12:12;;;;;;;36.33;17.30;;;-2.00;99.90;;;;;;5036336;28;20208;-67
2022/01/11 09:14:40;;;;;;;35.23;16.93;;;-2.00;99.90;;;;;;5039996;28;20268;-68
2022/01/11 09:17:08;;;;;;;35.97;17.67;;;-2.00;99.90;;;;;;5037438;28;20591;-66
2022/01/11 09:19:35;;;;;;;35.20;17.13;;;-1.90;99.90;;;;;;5045980;28;20211;-66
2022/01/11 09:22:02;;;;;;;37.73;18.77;;;-1.80;99.90;;;;;;5040695;28;20206;-68
2022/01/11 09:24:30;;;;;;;40.17;18.13;;;-1.80;99.90;;;;;;5040456;28;20210;-67
2022/01/11 09:26:59;;;;;;;35.03;18.73;;;-1.70;99.90;;;;;;5041174;28;20213;-67
2022/01/11 09:29:27;;;;;;;40.30;18.93;;;-1.60;99.90;;;;;;5040735;28;20209;-68
2022/01/11 09:31:56;;;;;;;37.70;19.53;;;-1.40;99.90;;;;;;5033313;28;20215;-70
2022/01/11 09:34:23;;;;;;;36.97;18.27;;;-1.20;99.90;;;;;;5052099;28;20206;-70
2022/01/11 09:36:51;;;;;;;37.87;18.93;;;-1.10;99.90;;;;;;5045357;28;20249;-70
2022/01/11 09:39:18;;;;;;;39.37;18.47;;;-1.00;99.90;;;;;;5041565;28;20203;-71
2022/01/11 09:41:45;;;;;;;37.50;19.13;;;-1.00;99.90;;;;;;5043338;28;20210;-70
2022/01/11 09:44:13;;;;;;;37.90;19.57;;;-1.00;99.90;;;;;;5047127;28;20210;-68
2022/01/11 09:46:41;;;;;;;35.13;19.83;;;-1.00;99.90;;;;;;5044112;28;20229;-69
2022/01/11 09:49:08;;;;;;;40.23;19.67;;;-0.90;99.90;;;;;;5043019;28;20572;-67
2022/01/11 09:51:36;;;;;;;36.90;18.77;;;-0.80;99.90;;;;;;5033591;28;20198;-68
2022/01/11 09:54:03;;;;;;;33.73;18.30;;;-0.80;99.90;;;;;;5032410;28;21022;-68
2022/01/11 09:56:30;;;;;;;36.63;17.53;;;-0.70;99.90;;;;;;5033316;28;20298;-68
2022/01/11 09:58:57;;;;;;;39.63;18.53;;;-0.60;99.90;;;;;;5031750;28;20206;-68
2022/01/11 10:01:26;;;;;;;34.73;18.57;;;-0.50;99.90;;;;;;5033147;28;20631;-66
2022/01/11 10:04:00;;;;;;;33.70;17.50;;;-0.40;99.90;;;;;;5044977;28;20217;-68
2022/01/11 10:06:27;;;;;;;37.37;18.43;;;-0.30;99.90;;;;;;5030931;28;20226;-68
2022/01/11 10:09:08;;;;;;;35.27;18.43;;;-0.20;99.90;;;;;;5033601;28;20210;-69
2022/01/11 10:11:36;;;;;;;35.27;18.17;;;-0.10;99.90;;;;;;5037567;28;20225;-68
2022/01/11 10:14:21;;;;;;;36.67;17.47;;;0.00;99.90;;;;;;5036324;28;20313;-68
2022/01/11 10:16:51;;;;;;;37.50;18.33;;;0.00;99.90;;;;;;5037656;28;20264;-67
2022/01/11 10:19:23;;;;;;;32.83;17.67;;;0.10;99.90;;;;;;5051320;28;20262;-66
2022/01/11 10:21:51;;;;;;;38.70;18.80;;;0.00;99.90;;;;;;5046477;28;20415;-68
2022/01/11 10:24:32;;;;;;;38.00;18.93;;;0.00;99.90;;;;;;5044986;28;20288;-68
2022/01/11 10:27:01;;;;;;;39.53;19.53;;;0.00;99.90;;;;;;5041846;28;20218;-67
2022/01/11 10:29:35;;;;;;;35.93;19.10;;;0.00;99.90;;;;;;5050327;28;20522;-67
2022/01/11 10:32:15;;;;;;;37.63;19.70;;;0.00;99.90;;;;;;5047091;28;20288;-68
2022/01/11 10:34:43;;;;;;;39.20;19.83;;;0.10;99.90;;;;;;5043048;28;20205;-68
2022/01/11 10:37:10;;;;;;;38.30;19.17;;;0.10;99.90;;;;;;5026580;28;20317;-68
2022/01/11 10:39:40;;;;;;;34.90;19.07;;;0.10;99.90;;;;;;5046814;28;20206;-68
2022/01/11 10:42:22;;;;;;;37.10;21.63;;;0.10;99.90;;;;;;5044054;28;20202;-67
2022/01/11 10:44:52;;;;;;;41.27;19.60;;;0.10;99.90;;;;;;5041661;28;20199;-67
2022/01/11 10:47:24;;;;;;;32.80;19.33;;;0.20;99.90;;;;;;5045100;28;20206;-66
2022/01/11 10:49:53;;;;;;;38.30;18.83;;;0.10;99.90;;;;;;5037012;28;20662;-68
2022/01/11 10:52:21;;;;;;;32.77;17.10;;;0.20;99.90;;;;;;5039777;28;20210;-67
2022/01/11 10:54:49;;;;;;;36.30;18.93;;;0.20;99.90;;;;;;5046056;28;20292;-68
2022/01/11 10:57:21;;;;;;;36.77;18.87;;;0.30;99.90;;;;;;5041725;28;20226;-67
2022/01/11 11:00:29;;;;;;;31.20;17.37;;;0.30;99.90;;;;;;5042493;28;20199;-67
2022/01/11 11:03:01;;;;;;;35.57;18.50;;;0.30;99.90;;;;;;5038761;28;20318;-68
2022/01/11 11:05:31;;;;;;;36.90;17.77;;;0.30;99.90;;;;;;5045641;28;20226;-67
2022/01/11 11:08:05;;;;;;;32.03;17.53;;;0.30;99.90;;;;;;5050760;28;20216;-68
2022/01/11 11:10:34;;;;;;;34.70;17.00;;;0.30;99.90;;;;;;5046150;28;20217;-68
2022/01/11 11:13:01;;;;;;;32.90;16.87;;;0.30;99.90;;;;;;5046100;28;20232;-67
2022/01/11 11:15:30;;;;;;;30.57;16.77;;;0.30;99.90;;;;;;5030034;28;20206;-68
2022/01/11 11:17:59;;;;;;;31.83;18.30;;;0.30;99.90;;;;;;5039648;28;20215;-67
2022/01/11 11:20:26;;;;;;;30.37;17.10;;;0.30;99.90;;;;;;5033415;28;20213;-67
2022/01/11 11:22:54;;;;;;;32.50;15.97;;;0.40;99.90;;;;;;5037702;28;20209;-67
2022/01/11 11:25:21;;;;;;;31.77;16.57;;;0.30;99.90;;;;;;5036504;28;20484;-68
2022/01/11 11:27:48;;;;;;;29.43;17.03;;;0.40;99.90;;;;;;5037471;28;20644;-67
2022/01/11 11:30:15;;;;;;;31.73;16.43;;;0.50;99.90;;;;;;5033697;28;20199;-68
2022/01/11 11:32:44;;;;;;;29.07;16.23;;;0.40;99.90;;;;;;5037329;28;20199;-67
2022/01/11 11:35:13;;;;;;;31.93;17.13;;;0.40;99.90;;;;;;5031219;28;20234;-68
2022/01/11 11:37:42;;;;;;;31.00;16.80;;;0.40;99.90;;;;;;5044321;28;20242;-68
2022/01/11 11:40:14;;;;;;;31.60;17.47;;;0.30;99.90;;;;;;5041116;28;20648;-68
2022/01/11 11:42:41;;;;;;;28.63;16.67;;;0.30;99.90;;;;;;5049348;28;20228;-68
2022/01/11 11:45:19;;;;;;;30.13;15.20;;;0.30;99.90;;;;;;5042719;28;20206;-67
2022/01/11 11:47:46;;;;;;;32.97;17.47;;;0.30;99.90;;;;;;5038248;28;20672;-67
2022/01/11 11:50:18;;;;;;;27.97;15.97;;;0.40;99.90;;;;;;5038952;28;20248;-67
2022/01/11 11:52:46;;;;;;;29.30;16.70;;;0.40;99.90;;;;;;5047710;28;20198;-67
2022/01/11 11:55:19;;;;;;;33.57;17.53;;;0.40;99.90;;;;;;5045279;28;20216;-67
2022/01/11 11:57:47;;;;;;;32.07;17.10;;;0.40;99.90;;;;;;5040033;28;20257;-67
2022/01/11 12:00:20;;;;;;;34.47;18.00;;;0.40;99.90;;;;;;5047833;28;20206;-68
2022/01/11 12:02:49;;;;;;;33.00;18.27;;;0.40;99.90;;;;;;5041145;28;20610;-67
2022/01/11 12:05:37;;;;;;;29.30;17.10;;;0.50;99.90;;;;;;5044517;28;20202;-67
2022/01/11 12:08:32;;;;;;;26.83;15.33;;;0.50;99.90;;;;;;5046447;28;20210;-68
2022/01/11 12:11:02;;;;;;;35.30;18.23;;;0.40;99.90;;;;;;5034481;28;20237;-69
2022/01/11 12:13:41;;;;;;;31.63;18.10;;;0.50;99.90;;;;;;5037864;28;20714;-67
2022/01/11 12:16:41;;;;;;;31.07;18.03;;;0.50;99.90;;;;;;5030723;28;20212;-68
2022/01/11 12:19:11;;;;;;;36.83;18.43;;;0.50;99.90;;;;;;5048621;28;20256;-68
2022/01/11 12:21:45;;;;;;;34.80;19.17;;;0.50;99.90;;;;;;5037748;28;20236;-68
2022/01/11 12:24:13;;;;;;;38.97;19.63;;;0.40;99.90;;;;;;5040219;28;20214;-68
2022/01/11 12:26:40;;;;;;;37.80;20.33;;;0.50;99.90;;;;;;5044887;28;20214;-67
2022/01/11 12:29:27;;;;;;;36.80;20.80;;;0.40;99.90;;;;;;5043456;28;20205;-67
2022/01/11 12:31:58;;;;;;;39.67;19.47;;;0.40;99.90;;;;;;5040577;28;20211;-67
2022/01/11 12:34:51;;;;;;;37.60;21.30;;;0.40;99.90;;;;;;5038963;28;20233;-67